Time;durP1;ratioP1;P1;durP2;ratioP2;P2;SDS_P1;SDS_P2;PMS_P1;PMS_P2;Temp;Humidity;BMP_temperature;BMP_pressure;BME280_temperature;BME280_humidity;BME280_pressure;Samples;Min_cycle;Max_cycle;Signal;HPM_P1;HPM_P2
2022/12/04 00:00:14;;;;;;;48.63;19.90;;;0.30;99.90;;;;;;5130343;28;20096;-48
2022/12/04 00:02:40;;;;;;;47.78;20.05;;;0.30;99.90;;;;;;5130262;28;20143;-48
2022/12/04 00:05:08;;;;;;;48.90;20.50;;;0.30;99.90;;;;;;5130449;28;20039;-49
2022/12/04 00:07:34;;;;;;;47.88;19.20;;;0.30;99.90;;;;;;5130203;28;20134;-48
2022/12/04 00:10:01;;;;;;;47.30;19.42;;;0.20;99.90;;;;;;5129964;28;20054;-51
2022/12/04 00:12:26;;;;;;;50.58;20.60;;;0.30;99.90;;;;;;5129254;28;20390;-48
2022/12/04 00:14:52;;;;;;;48.97;20.75;;;0.30;99.90;;;;;;5112048;28;20020;-46
2022/12/04 00:17:18;;;;;;;49.53;19.50;;;0.30;99.90;;;;;;5130076;28;20039;-47
2022/12/04 00:19:44;;;;;;;44.42;18.50;;;0.30;99.90;;;;;;5130133;28;20062;-46
2022/12/04 00:22:09;;;;;;;52.00;21.02;;;0.30;99.90;;;;;;5130189;28;20080;-45
2022/12/04 00:24:35;;;;;;;49.60;20.70;;;0.30;99.90;;;;;;5129586;28;20045;-51
2022/12/04 00:27:01;;;;;;;51.45;21.00;;;0.30;99.90;;;;;;5130192;28;20402;-48
2022/12/04 00:29:28;;;;;;;49.45;19.55;;;0.30;99.90;;;;;;5129611;28;20104;-50
2022/12/04 00:31:54;;;;;;;51.55;21.30;;;0.30;99.90;;;;;;5130088;28;20048;-46
2022/12/04 00:34:21;;;;;;;51.30;20.35;;;0.30;99.90;;;;;;5128538;28;20042;-45
2022/12/04 00:36:47;;;;;;;54.10;21.30;;;0.30;99.90;;;;;;5111716;28;20542;-47
2022/12/04 00:39:13;;;;;;;51.42;21.38;;;0.30;99.90;;;;;;5129371;28;20134;-49
2022/12/04 00:41:39;;;;;;;51.67;20.70;;;0.30;99.90;;;;;;5129810;28;20178;-46
2022/12/04 00:44:04;;;;;;;50.40;21.15;;;0.30;99.90;;;;;;5129944;28;20031;-47
2022/12/04 00:46:30;;;;;;;52.72;20.55;;;0.30;99.90;;;;;;5129857;28;20394;-47
2022/12/04 00:48:58;;;;;;;56.95;22.48;;;0.30;99.90;;;;;;5129900;28;20038;-45
2022/12/04 00:51:24;;;;;;;56.70;21.08;;;0.30;99.90;;;;;;5111060;28;20118;-45
2022/12/04 00:53:51;;;;;;;51.40;21.20;;;0.30;99.90;;;;;;5129336;28;20382;-46
2022/12/04 00:56:20;;;;;;;51.38;20.95;;;0.30;99.90;;;;;;5129740;28;20433;-45
2022/12/04 00:58:46;;;;;;;51.30;21.60;;;0.30;99.90;;;;;;5129572;28;20561;-46
2022/12/04 01:01:14;;;;;;;46.95;19.85;;;0.30;99.90;;;;;;5129697;28;20057;-46
2022/12/04 01:03:41;;;;;;;54.67;20.92;;;0.30;99.90;;;;;;5129745;28;20078;-46
2022/12/04 01:06:07;;;;;;;53.03;20.77;;;0.30;99.90;;;;;;5111126;28;20047;-46
2022/12/04 01:08:33;;;;;;;52.80;22.35;;;0.30;99.90;;;;;;5095380;27;20042;-47
2022/12/04 01:10:58;;;;;;;48.63;20.40;;;0.30;99.90;;;;;;5133363;27;20031;-49
2022/12/04 01:13:25;;;;;;;49.35;21.73;;;0.30;99.90;;;;;;5133196;27;20408;-48
2022/12/04 01:15:51;;;;;;;48.20;20.73;;;0.30;99.90;;;;;;5114514;27;20043;-49
2022/12/04 01:18:16;;;;;;;53.13;22.00;;;0.30;99.90;;;;;;5133240;27;20379;-47
2022/12/04 01:20:48;;;;;;;54.22;21.10;;;0.30;99.90;;;;;;5133126;27;20038;-47
2022/12/04 01:23:14;;;;;;;50.95;21.55;;;0.30;99.90;;;;;;5133200;27;20046;-49
2022/12/04 01:25:39;;;;;;;54.10;22.35;;;0.30;99.90;;;;;;5114193;27;20023;-48
2022/12/04 01:28:05;;;;;;;54.42;22.20;;;0.20;99.90;;;;;;5114305;27;20034;-50
2022/12/04 01:30:31;;;;;;;50.70;21.23;;;0.20;99.90;;;;;;5133207;27;20043;-49
2022/12/04 01:32:56;;;;;;;48.53;20.50;;;0.20;99.90;;;;;;5132949;27;20043;-49
2022/12/04 01:35:22;;;;;;;52.42;21.70;;;0.30;99.90;;;;;;5132579;27;20474;-50
2022/12/04 01:37:47;;;;;;;53.78;23.00;;;0.30;99.90;;;;;;5114248;27;20576;-47
2022/12/04 01:40:15;;;;;;;56.13;21.67;;;0.20;99.90;;;;;;5132159;27;20043;-48
2022/12/04 01:42:41;;;;;;;57.03;22.48;;;0.20;99.90;;;;;;5132468;27;20043;-49
2022/12/04 01:45:42;;;;;;;54.92;22.83;;;0.20;99.90;;;;;;5132710;27;20043;-46
2022/12/04 01:48:18;;;;;;;54.00;21.20;;;0.20;99.90;;;;;;5132602;27;20058;-48
2022/12/04 01:50:45;;;;;;;52.05;21.52;;;0.20;99.90;;;;;;5132692;27;20035;-49
2022/12/04 01:53:11;;;;;;;52.75;22.15;;;0.20;99.90;;;;;;5132506;27;20523;-47
2022/12/04 01:55:38;;;;;;;53.78;22.42;;;0.20;99.90;;;;;;5132155;27;20386;-49
2022/12/04 01:58:05;;;;;;;58.55;21.88;;;0.30;99.90;;;;;;5132140;27;20039;-49
2022/12/04 02:00:31;;;;;;;54.42;23.67;;;0.20;99.90;;;;;;5113744;27;20110;-48
2022/12/04 02:02:57;;;;;;;54.28;22.75;;;0.20;99.90;;;;;;5132363;27;20043;-51
2022/12/04 02:05:24;;;;;;;55.30;22.48;;;0.20;99.90;;;;;;5132412;27;20382;-47
2022/12/04 02:07:55;;;;;;;55.15;22.02;;;0.20;99.90;;;;;;5132086;27;20059;-50
2022/12/04 02:10:27;;;;;;;59.72;23.77;;;0.20;99.90;;;;;;5113969;27;20035;-50
2022/12/04 02:13:30;;;;;;;53.85;21.73;;;0.20;99.90;;;;;;5130671;27;20042;-48
2022/12/04 02:16:18;;;;;;;61.22;23.38;;;0.20;99.90;;;;;;5132064;27;20039;-49
2022/12/04 02:19:29;;;;;;;56.95;22.90;;;0.20;99.90;;;;;;5131884;27;20110;-47
2022/12/04 02:22:01;;;;;;;56.63;21.80;;;0.20;99.90;;;;;;5058142;27;20077;-50
2022/12/04 02:24:45;;;;;;;56.05;22.20;;;0.20;99.90;;;;;;5130982;27;20039;-49
2022/12/04 02:27:37;;;;;;;55.53;22.25;;;0.30;99.90;;;;;;5131809;27;20047;-48
2022/12/04 02:30:10;;;;;;;56.70;22.08;;;0.20;99.90;;;;;;5112676;27;20039;-47
2022/12/04 02:32:41;;;;;;;57.58;22.55;;;0.20;99.90;;;;;;5113225;27;20470;-47
2022/12/04 02:35:30;;;;;;;58.92;24.38;;;0.20;99.90;;;;;;5113361;27;20505;-48
2022/12/04 02:38:05;;;;;;;61.00;23.83;;;0.20;99.90;;;;;;5131592;27;20037;-46
2022/12/04 02:40:41;;;;;;;57.95;23.33;;;0.20;99.90;;;;;;5131184;27;20085;-46
2022/12/04 02:43:10;;;;;;;59.60;22.40;;;0.20;99.90;;;;;;5131651;27;20039;-47
2022/12/04 02:45:51;;;;;;;55.88;23.10;;;0.30;99.90;;;;;;5113097;27;20554;-48
2022/12/04 02:48:19;;;;;;;56.50;24.25;;;0.20;99.90;;;;;;5131574;27;20042;-48
2022/12/04 02:50:49;;;;;;;60.55;24.75;;;0.20;99.90;;;;;;5131480;27;20039;-46
2022/12/04 02:53:18;;;;;;;63.50;24.23;;;0.20;99.90;;;;;;5130882;27;20046;-50
2022/12/04 02:55:54;;;;;;;61.28;24.33;;;0.20;99.90;;;;;;5130553;27;20039;-46
2022/12/04 02:58:26;;;;;;;54.22;23.15;;;0.20;99.90;;;;;;5130261;27;20031;-51
2022/12/04 03:00:54;;;;;;;60.22;25.08;;;0.20;99.90;;;;;;5131296;27;20031;-51
2022/12/04 03:03:25;;;;;;;62.92;25.98;;;0.20;99.90;;;;;;5131827;27;20118;-47
2022/12/04 03:05:59;;;;;;;58.70;23.27;;;0.20;99.90;;;;;;5131592;27;20054;-48
2022/12/04 03:08:35;;;;;;;63.25;25.20;;;0.10;99.90;;;;;;5131151;27;20469;-47
2022/12/04 03:11:01;;;;;;;63.83;24.23;;;0.20;99.90;;;;;;5129646;27;20043;-52
2022/12/04 03:13:42;;;;;;;59.83;24.60;;;0.20;99.90;;;;;;5130814;27;20050;-47
2022/12/04 03:16:19;;;;;;;65.40;25.00;;;0.10;99.90;;;;;;5127241;27;20093;-48
2022/12/04 03:18:57;;;;;;;63.67;24.63;;;0.10;99.90;;;;;;5111369;27;20035;-50
2022/12/04 03:21:27;;;;;;;63.05;25.00;;;0.20;99.90;;;;;;5130102;27;20107;-47
2022/12/04 03:24:03;;;;;;;60.53;25.05;;;0.50;99.90;;;;;;5130523;27;20035;-47
2022/12/04 03:26:34;;;;;;;71.70;27.40;;;0.20;99.90;;;;;;5129889;27;20087;-48
2022/12/04 03:29:06;;;;;;;58.70;23.00;;;0.20;99.90;;;;;;5130536;27;20039;-49
2022/12/04 03:31:50;;;;;;;63.88;25.27;;;0.20;99.90;;;;;;5129700;27;20483;-47
2022/12/04 03:34:41;;;;;;;60.60;23.67;;;0.20;99.90;;;;;;5130353;27;20035;-47
2022/12/04 03:37:15;;;;;;;61.20;24.58;;;0.10;99.90;;;;;;5115593;27;20055;-48
2022/12/04 03:40:09;;;;;;;59.15;23.23;;;0.10;99.90;;;;;;5130387;27;20043;-49
2022/12/04 03:42:48;;;;;;;62.25;24.35;;;0.10;99.90;;;;;;5121061;27;20486;-51
2022/12/04 03:45:49;;;;;;;59.50;23.75;;;0.10;99.90;;;;;;5129243;27;20027;-48
2022/12/04 03:48:27;;;;;;;57.28;22.98;;;0.20;99.90;;;;;;5097482;27;20047;-47
2022/12/04 03:51:16;;;;;;;60.22;23.00;;;0.10;99.90;;;;;;5130571;27;20039;-48
2022/12/04 03:53:52;;;;;;;62.70;24.20;;;0.20;99.90;;;;;;5129975;27;20467;-48
2022/12/04 03:56:30;;;;;;;59.05;22.65;;;0.20;99.90;;;;;;5129737;28;20033;-49
2022/12/04 03:59:06;;;;;;;55.00;23.25;;;0.10;99.90;;;;;;5130342;28;20111;-47
2022/12/04 04:01:35;;;;;;;59.85;23.70;;;0.20;99.90;;;;;;5129675;28;20161;-45
2022/12/04 04:04:06;;;;;;;61.00;24.08;;;0.10;99.90;;;;;;5111599;28;20043;-44
2022/12/04 04:06:37;;;;;;;64.00;24.92;;;0.20;99.90;;;;;;5130133;28;20036;-50
2022/12/04 04:09:13;;;;;;;58.47;24.02;;;0.10;99.90;;;;;;5130928;28;20062;-47
2022/12/04 04:11:55;;;;;;;65.05;24.40;;;0.20;99.90;;;;;;5130168;28;20058;-50
2022/12/04 04:25:42;;;;;;;56.67;22.67;;;0.10;99.90;;;;;;5110862;28;20126;-47
2022/12/04 04:28:41;;;;;;;62.30;25.10;;;0.20;99.90;;;;;;5110531;28;20395;-52
2022/12/04 04:31:17;;;;;;;60.00;24.23;;;0.20;99.90;;;;;;5056146;28;20059;-49
2022/12/04 04:33:58;;;;;;;62.47;24.38;;;-0.90;99.90;;;;;;5129867;28;20039;-49
2022/12/04 04:37:02;;;;;;;59.72;23.95;;;0.20;99.90;;;;;;5129773;28;20048;-49
2022/12/04 04:39:50;;;;;;;60.38;24.20;;;0.20;99.90;;;;;;5124561;28;20046;-47
2022/12/04 04:42:32;;;;;;;53.70;22.67;;;0.20;99.90;;;;;;5111259;28;20116;-47
2022/12/04 04:45:24;;;;;;;62.25;23.85;;;0.20;99.90;;;;;;5133416;27;20039;-50
2022/12/04 04:48:15;;;;;;;59.65;24.02;;;0.20;99.90;;;;;;5085597;27;20047;-48
2022/12/04 04:50:43;;;;;;;61.25;24.80;;;0.20;99.90;;;;;;5085161;27;20083;-47
2022/12/04 04:53:14;;;;;;;59.28;22.50;;;0.20;99.90;;;;;;5133682;27;20039;-47
2022/12/04 04:55:40;;;;;;;59.90;23.50;;;0.10;99.90;;;;;;5132294;27;20031;-49
2022/12/04 04:58:11;;;;;;;59.83;24.35;;;0.20;99.90;;;;;;5133660;27;20438;-46
2022/12/04 05:00:38;;;;;;;59.45;24.23;;;0.20;99.90;;;;;;5133463;27;20115;-47
2022/12/04 05:03:04;;;;;;;62.40;24.10;;;0.10;99.90;;;;;;5133608;27;20046;-46
2022/12/04 05:05:30;;;;;;;55.55;23.70;;;0.10;99.90;;;;;;5133297;27;20051;-46
2022/12/04 05:07:56;;;;;;;66.03;24.45;;;0.20;99.90;;;;;;5133123;27;20039;-50
2022/12/04 05:10:22;;;;;;;58.20;24.13;;;0.30;99.90;;;;;;5133064;27;20500;-46
2022/12/04 05:12:47;;;;;;;67.18;25.10;;;0.20;99.90;;;;;;5133282;27;20147;-49
2022/12/04 05:15:13;;;;;;;58.38;25.02;;;0.20;99.90;;;;;;5133572;27;20436;-47
2022/12/04 05:17:39;;;;;;;59.13;25.10;;;0.10;99.90;;;;;;5133123;27;20034;-48
2022/12/04 05:20:05;;;;;;;65.20;24.88;;;0.20;99.90;;;;;;5133330;27;20490;-46
2022/12/04 05:22:33;;;;;;;65.00;25.10;;;0.20;99.90;;;;;;5133376;27;20051;-46
2022/12/04 05:24:59;;;;;;;64.47;25.20;;;0.20;99.90;;;;;;5132809;27;20042;-46
2022/12/04 05:27:27;;;;;;;62.90;23.85;;;0.20;99.90;;;;;;5084976;27;20045;-45
2022/12/04 05:29:54;;;;;;;63.75;25.63;;;0.10;99.90;;;;;;5133197;27;20474;-46
2022/12/04 05:32:21;;;;;;;60.92;23.77;;;0.10;99.90;;;;;;5132939;27;20047;-45
2022/12/04 05:34:52;;;;;;;58.30;24.25;;;0.20;99.90;;;;;;5132939;27;20035;-46
2022/12/04 05:37:18;;;;;;;56.15;22.52;;;0.10;99.90;;;;;;5132720;27;20050;-49
2022/12/04 05:39:44;;;;;;;58.70;23.42;;;0.20;99.90;;;;;;5132356;27;20482;-49
2022/12/04 05:42:10;;;;;;;60.50;24.35;;;0.20;99.90;;;;;;5114063;27;20082;-47
2022/12/04 05:44:36;;;;;;;59.38;24.30;;;0.10;99.90;;;;;;5132714;27;20039;-48
2022/12/04 05:47:02;;;;;;;56.85;23.02;;;0.10;99.90;;;;;;5114176;27;20046;-47
2022/12/04 05:49:29;;;;;;;63.30;25.02;;;0.20;99.90;;;;;;5132253;27;20035;-48
2022/12/04 05:51:54;;;;;;;62.00;23.48;;;0.10;99.90;;;;;;5132323;27;20043;-46
2022/12/04 05:54:20;;;;;;;65.55;24.08;;;0.10;99.90;;;;;;5131679;27;20031;-47
2022/12/04 05:56:46;;;;;;;68.35;26.50;;;0.20;99.90;;;;;;5132805;27;20092;-46
2022/12/04 05:59:13;;;;;;;58.30;23.55;;;0.20;99.90;;;;;;5131198;27;20541;-49
2022/12/04 06:01:39;;;;;;;59.75;23.40;;;0.10;99.90;;;;;;5132364;27;20053;-47
2022/12/04 06:04:04;;;;;;;65.05;23.98;;;0.20;99.90;;;;;;5132379;27;20510;-46
2022/12/04 06:06:30;;;;;;;66.18;24.13;;;0.20;99.90;;;;;;5132288;27;20031;-46
2022/12/04 06:08:58;;;;;;;60.60;25.63;;;0.20;99.90;;;;;;5132208;27;20456;-48
2022/12/04 06:11:27;;;;;;;62.00;24.67;;;0.10;99.90;;;;;;5131856;27;20038;-45
2022/12/04 06:13:53;;;;;;;64.35;24.60;;;0.10;99.90;;;;;;5131961;27;20051;-47
2022/12/04 06:16:32;;;;;;;63.65;25.08;;;0.20;99.90;;;;;;5130652;27;20076;-47
2022/12/04 06:19:01;;;;;;;59.83;23.98;;;0.10;99.90;;;;;;5131744;27;20066;-48
2022/12/04 06:21:29;;;;;;;61.92;24.58;;;0.20;99.90;;;;;;5132524;27;20034;-49
2022/12/04 06:23:55;;;;;;;59.72;24.38;;;0.20;99.90;;;;;;5132485;27;20546;-49
2022/12/04 06:26:21;;;;;;;58.58;23.45;;;0.10;99.90;;;;;;5131589;27;20934;-46
2022/12/04 06:28:47;;;;;;;64.93;25.63;;;0.10;99.90;;;;;;5130595;27;20063;-49
2022/12/04 06:31:15;;;;;;;59.67;23.20;;;0.10;99.90;;;;;;5131826;27;20074;-47
2022/12/04 06:33:42;;;;;;;59.65;24.35;;;0.10;99.90;;;;;;5131657;27;20042;-47
2022/12/04 06:36:11;;;;;;;56.42;23.48;;;0.20;99.90;;;;;;5131779;27;20462;-49
2022/12/04 06:38:38;;;;;;;60.15;24.30;;;0.20;99.90;;;;;;5131439;27;20067;-47
2022/12/04 06:41:05;;;;;;;64.35;25.17;;;0.10;99.90;;;;;;5112565;27;20047;-46
2022/12/04 06:43:31;;;;;;;62.30;25.70;;;0.10;99.90;;;;;;5131588;27;20066;-46
2022/12/04 06:46:05;;;;;;;60.25;24.55;;;0.10;99.90;;;;;;5132250;27;20446;-45
2022/12/04 06:48:31;;;;;;;;;;;0.10;99.90;;;;;;5131625;27;20125;-46
2022/12/04 06:50:59;;;;;;;63.80;23.27;;;0.20;99.90;;;;;;5131519;27;20019;-47
2022/12/04 06:53:26;;;;;;;58.78;22.20;;;0.10;99.90;;;;;;5131223;27;20126;-45
2022/12/04 06:55:52;;;;;;;59.05;24.45;;;0.20;99.90;;;;;;5112681;27;20084;-47
2022/12/04 06:58:18;;;;;;;60.30;24.48;;;0.10;99.90;;;;;;5131368;27;20038;-45
2022/12/04 07:00:43;;;;;;;62.53;25.08;;;0.10;99.90;;;;;;5130206;27;20122;-45
2022/12/04 07:03:09;;;;;;;55.47;23.50;;;0.10;99.90;;;;;;5130943;27;20042;-45
2022/12/04 07:05:35;;;;;;;57.85;23.58;;;0.20;99.90;;;;;;5112498;27;20042;-46
2022/12/04 07:08:00;;;;;;;52.72;21.45;;;0.20;99.90;;;;;;5131102;27;20037;-45
2022/12/04 07:10:26;;;;;;;62.22;24.13;;;0.20;99.90;;;;;;5112664;27;20039;-47
2022/12/04 07:12:52;;;;;;;64.25;25.27;;;0.10;99.90;;;;;;5110772;27;20081;-47
2022/12/04 07:15:18;;;;;;;61.25;24.00;;;0.10;99.90;;;;;;5131081;27;20027;-48
2022/12/04 07:17:44;;;;;;;59.72;24.48;;;0.10;99.90;;;;;;5130610;27;20077;-49
2022/12/04 07:20:10;;;;;;;59.92;24.40;;;0.10;99.90;;;;;;5131084;27;20456;-45
2022/12/04 07:22:36;;;;;;;59.08;24.00;;;0.10;99.90;;;;;;5129574;27;20545;-46
2022/12/04 07:25:02;;;;;;;61.05;24.42;;;0.20;99.90;;;;;;5130210;27;20126;-49
2022/12/04 07:27:30;;;;;;;62.55;25.77;;;0.10;99.90;;;;;;5111819;27;20043;-48
2022/12/04 07:29:55;;;;;;;60.13;23.63;;;0.20;99.90;;;;;;5130705;27;20043;-46
2022/12/04 07:32:21;;;;;;;60.38;23.58;;;0.10;99.90;;;;;;5130213;27;20452;-47
2022/12/04 07:34:47;;;;;;;62.33;23.75;;;0.20;99.90;;;;;;5130308;27;20046;-47
2022/12/04 07:37:12;;;;;;;65.05;23.77;;;0.20;99.90;;;;;;5130674;27;20034;-47
2022/12/04 07:39:38;;;;;;;57.58;23.50;;;0.00;99.90;;;;;;5130392;27;20079;-49
2022/12/04 07:42:04;;;;;;;61.55;24.13;;;0.10;99.90;;;;;;5130217;27;20054;-48
2022/12/04 07:44:31;;;;;;;61.45;23.70;;;0.10;99.90;;;;;;5130409;27;20489;-49
2022/12/04 07:46:57;;;;;;;55.08;22.45;;;0.10;99.90;;;;;;5130130;27;20501;-48
2022/12/04 07:49:23;;;;;;;57.83;22.15;;;0.10;99.90;;;;;;5130389;27;20037;-46
2022/12/04 07:51:48;;;;;;;58.97;23.60;;;0.10;99.90;;;;;;5129965;27;20082;-47
2022/12/04 07:54:14;;;;;;;60.60;23.92;;;0.20;99.90;;;;;;5111820;27;20398;-46
2022/12/04 07:56:40;;;;;;;62.75;23.00;;;0.30;99.90;;;;;;5129938;27;20031;-46
2022/12/04 07:59:05;;;;;;;54.50;21.63;;;0.00;99.90;;;;;;5129948;28;20035;-46
2022/12/04 08:01:31;;;;;;;56.85;20.10;;;0.10;99.90;;;;;;5129838;28;20031;-49
2022/12/04 08:03:58;;;;;;;55.58;23.40;;;0.10;99.90;;;;;;5129801;28;20035;-48
2022/12/04 08:06:26;;;;;;;51.50;21.13;;;0.20;99.90;;;;;;5129777;28;20149;-46
2022/12/04 08:08:52;;;;;;;49.75;21.98;;;0.10;99.90;;;;;;5130015;28;20031;-47
2022/12/04 08:11:21;;;;;;;52.50;21.77;;;0.20;99.90;;;;;;5111480;28;20043;-47
2022/12/04 08:13:47;;;;;;;57.50;23.40;;;0.10;99.90;;;;;;5128243;28;20057;-49
2022/12/04 08:16:14;;;;;;;50.55;20.67;;;0.10;99.90;;;;;;5126152;28;20050;-46
2022/12/04 08:18:45;;;;;;;52.05;21.17;;;0.10;99.90;;;;;;5105825;27;20032;-46
2022/12/04 08:21:13;;;;;;;48.08;20.55;;;0.20;99.90;;;;;;5123083;27;20412;-46
2022/12/04 08:23:41;;;;;;;50.25;21.05;;;0.20;99.90;;;;;;5123277;27;20075;-48
2022/12/04 08:26:07;;;;;;;49.63;20.58;;;0.10;99.90;;;;;;5122929;27;20346;-47
2022/12/04 08:28:33;;;;;;;53.03;21.67;;;0.20;99.90;;;;;;5123251;27;20035;-46
2022/12/04 08:31:05;;;;;;;51.15;20.95;;;0.20;99.90;;;;;;5124541;27;20389;-46
2022/12/04 08:33:31;;;;;;;49.17;20.52;;;0.20;99.90;;;;;;5123464;27;20104;-51
2022/12/04 08:35:57;;;;;;;54.90;22.00;;;0.10;99.90;;;;;;5122679;27;20409;-47
2022/12/04 08:38:23;;;;;;;57.65;21.17;;;0.20;99.90;;;;;;5123827;27;20023;-49
2022/12/04 08:40:49;;;;;;;52.67;22.00;;;0.10;99.90;;;;;;5122220;27;20268;-46
2022/12/04 08:43:14;;;;;;;50.15;19.88;;;0.10;99.90;;;;;;5123635;27;20388;-45
2022/12/04 08:45:40;;;;;;;50.53;19.73;;;0.30;99.90;;;;;;5104465;27;20378;-48
2022/12/04 08:48:06;;;;;;;50.72;20.55;;;0.20;99.90;;;;;;5121823;27;20043;-47
2022/12/04 08:50:31;;;;;;;48.60;20.98;;;0.30;99.90;;;;;;5104023;27;20110;-47
2022/12/04 08:52:57;;;;;;;47.20;19.30;;;0.10;99.90;;;;;;5123844;27;20547;-49
2022/12/04 08:55:23;;;;;;;46.75;19.95;;;0.30;99.90;;;;;;5122258;27;20126;-48
2022/12/04 08:57:52;;;;;;;53.85;21.10;;;0.10;99.90;;;;;;5121001;27;20338;-49
2022/12/04 09:00:18;;;;;;;51.85;20.95;;;0.40;99.90;;;;;;5122013;27;20508;-47
2022/12/04 09:02:48;;;;;;;51.28;20.00;;;0.30;99.90;;;;;;5121958;27;20031;-46
2022/12/04 09:05:14;;;;;;;50.42;19.77;;;0.10;99.90;;;;;;5123626;27;20123;-48
2022/12/04 09:07:40;;;;;;;52.92;20.75;;;0.20;99.90;;;;;;5122478;27;20062;-45
2022/12/04 09:10:06;;;;;;;52.60;21.38;;;0.30;99.90;;;;;;5123672;27;20023;-45
2022/12/04 09:12:31;;;;;;;55.03;19.83;;;0.20;99.90;;;;;;5123316;27;20053;-48
2022/12/04 09:14:57;;;;;;;51.10;19.85;;;0.60;99.90;;;;;;5121407;27;20035;-46
2022/12/04 09:17:23;;;;;;;50.17;19.95;;;0.20;99.90;;;;;;5123264;27;20028;-46
2022/12/04 09:19:49;;;;;;;50.25;21.23;;;0.40;99.90;;;;;;5104860;27;20027;-47
2022/12/04 09:22:14;;;;;;;49.35;19.63;;;0.40;99.90;;;;;;5121181;27;20035;-47
2022/12/04 09:24:40;;;;;;;53.15;21.35;;;0.20;99.90;;;;;;5122376;27;20063;-45
2022/12/04 09:27:06;;;;;;;54.95;20.40;;;0.40;99.90;;;;;;5121494;27;20045;-46
2022/12/04 09:29:31;;;;;;;53.47;20.55;;;0.30;99.90;;;;;;5123160;27;20160;-47
2022/12/04 09:31:57;;;;;;;52.28;21.23;;;0.40;99.90;;;;;;5122388;27;20031;-45
2022/12/04 09:34:22;;;;;;;51.63;21.40;;;0.40;99.90;;;;;;5122142;27;20024;-46
2022/12/04 09:36:49;;;;;;;54.42;21.08;;;0.20;99.90;;;;;;5121870;27;20059;-47
2022/12/04 09:39:14;;;;;;;55.45;22.05;;;0.30;99.90;;;;;;5121592;27;20092;-46
2022/12/04 09:41:58;;;;;;;60.28;23.40;;;0.20;99.90;;;;;;5122758;27;20065;-45
2022/12/04 09:44:43;;;;;;;58.90;21.48;;;0.30;99.90;;;;;;5120876;27;20031;-48
2022/12/04 09:47:18;;;;;;;60.08;22.33;;;0.50;99.90;;;;;;5121747;27;20039;-50
2022/12/04 09:49:52;;;;;;;62.60;22.67;;;0.30;99.90;;;;;;5103827;27;20039;-46
2022/12/04 09:52:43;;;;;;;59.65;23.13;;;0.50;99.90;;;;;;5120963;27;20964;-47
2022/12/04 09:55:28;;;;;;;62.17;23.92;;;0.40;99.90;;;;;;5098267;27;20031;-46
2022/12/04 09:57:58;;;;;;;63.35;24.60;;;0.40;99.90;;;;;;5118161;27;20561;-45
2022/12/04 10:00:26;;;;;;;58.88;22.10;;;0.40;99.90;;;;;;5121121;27;20483;-47
2022/12/04 10:03:00;;;;;;;59.85;24.00;;;0.60;99.90;;;;;;5119553;27;20035;-50
2022/12/04 10:05:34;;;;;;;;;;;0.40;99.90;;;;;;5120802;27;20447;-46
2022/12/04 10:08:15;;;;;;;61.55;21.85;;;0.60;99.90;;;;;;5103298;27;20445;-47
2022/12/04 10:10:44;;;;;;;60.72;23.00;;;0.50;99.90;;;;;;5121781;27;20039;-48
2022/12/04 10:13:37;;;;;;;64.18;23.10;;;0.40;99.90;;;;;;5122127;27;20035;-51
2022/12/04 10:16:43;;;;;;;66.40;23.83;;;0.50;99.90;;;;;;5120500;27;20118;-46
2022/12/04 10:19:24;;;;;;;64.07;24.15;;;0.60;99.90;;;;;;5119504;27;20131;-46
2022/12/04 10:22:08;;;;;;;63.35;23.77;;;2.10;99.90;;;;;;5121289;27;20470;-49
2022/12/04 10:24:39;;;;;;;68.88;24.98;;;0.40;99.90;;;;;;5121373;27;20130;-50
2022/12/04 10:27:30;;;;;;;74.60;25.77;;;0.70;99.90;;;;;;5119143;27;20043;-49
2022/12/04 10:30:01;;;;;;;69.38;24.27;;;0.50;99.90;;;;;;5120709;27;20091;-50
2022/12/04 10:32:32;;;;;;;73.00;27.00;;;0.80;99.90;;;;;;5120532;27;20047;-45
2022/12/04 10:35:20;;;;;;;68.95;25.92;;;0.60;99.90;;;;;;5120702;27;20037;-49
2022/12/04 10:37:52;;;;;;;69.65;26.70;;;0.80;99.90;;;;;;5100843;27;20494;-47
2022/12/04 10:40:24;;;;;;;68.53;25.25;;;0.80;99.90;;;;;;5080851;27;20422;-46
2022/12/04 10:43:04;;;;;;;70.38;25.25;;;0.70;99.90;;;;;;5121297;27;20383;-47
2022/12/04 10:45:30;;;;;;;79.88;25.83;;;0.90;99.90;;;;;;5120677;27;20035;-46
2022/12/04 10:47:56;;;;;;;79.63;28.00;;;0.60;99.90;;;;;;5121494;27;20038;-46
2022/12/04 10:50:23;;;;;;;70.57;26.50;;;0.50;99.90;;;;;;5120430;27;20490;-50
2022/12/04 10:52:50;;;;;;;78.13;26.70;;;0.60;99.90;;;;;;5100477;27;20034;-48
2022/12/04 10:55:33;;;;;;;70.88;26.33;;;0.60;99.90;;;;;;5119923;27;23586;-46
2022/12/04 10:58:01;;;;;;;71.65;27.73;;;0.50;99.90;;;;;;5119882;27;20149;-45
2022/12/04 11:00:32;;;;;;;76.10;26.08;;;0.60;99.90;;;;;;5119154;27;20038;-45
2022/12/04 11:03:18;;;;;;;70.45;27.88;;;1.50;99.90;;;;;;5119512;27;20043;-48
2022/12/04 11:05:54;;;;;;;68.13;25.60;;;1.00;99.90;;;;;;5117077;27;20501;-46
2022/12/04 11:08:28;;;;;;;76.20;27.27;;;0.90;99.90;;;;;;5118300;27;20497;-47
2022/12/04 11:11:00;;;;;;;68.55;27.08;;;0.60;99.90;;;;;;5116364;27;20046;-47
2022/12/04 11:13:26;;;;;;;70.50;27.42;;;0.90;99.90;;;;;;5117771;27;22317;-48
2022/12/04 11:15:55;;;;;;;67.68;26.83;;;0.70;99.90;;;;;;5099309;27;20039;-48
2022/12/04 11:18:33;;;;;;;69.72;27.02;;;0.90;99.90;;;;;;5100264;27;20031;-46
2022/12/04 11:21:03;;;;;;;67.05;27.60;;;1.00;99.90;;;;;;5117576;27;20082;-49
2022/12/04 11:23:33;;;;;;;74.53;27.67;;;0.80;99.90;;;;;;5118804;27;20061;-47
2022/12/04 11:26:00;;;;;;;67.13;27.27;;;0.80;99.90;;;;;;5120927;27;20054;-48
2022/12/04 11:28:29;;;;;;;75.78;29.67;;;1.10;99.90;;;;;;5118663;27;20039;-46
2022/12/04 11:31:01;;;;;;;71.00;28.27;;;1.10;99.90;;;;;;5120030;27;20039;-49
2022/12/04 11:33:46;;;;;;;72.30;28.48;;;0.90;99.90;;;;;;5120569;27;20093;-47
2022/12/04 11:36:30;;;;;;;62.28;26.52;;;0.90;99.90;;;;;;5120437;27;20414;-47
2022/12/04 11:39:11;;;;;;;;;;;0.90;99.90;;;;;;5121335;27;20030;-47
2022/12/04 11:41:37;;;;;;;70.95;25.92;;;1.20;99.90;;;;;;5120199;27;20016;-48
2022/12/04 11:44:06;;;;;;;64.47;26.27;;;1.30;99.90;;;;;;5101945;27;20035;-48
2022/12/04 11:46:33;;;;;;;66.82;25.42;;;1.20;99.90;;;;;;5119409;27;20035;-46
2022/12/04 11:48:59;;;;;;;62.17;25.50;;;1.00;99.90;;;;;;5119934;27;20049;-46
2022/12/04 11:51:36;;;;;;;63.28;26.45;;;1.20;99.90;;;;;;5120300;27;20482;-48
2022/12/04 11:54:21;;;;;;;62.65;26.38;;;1.10;99.90;;;;;;5119478;27;20111;-47
2022/12/04 11:56:55;;;;;;;58.78;25.02;;;1.10;99.90;;;;;;5120117;27;20027;-46
2022/12/04 11:59:39;;;;;;;57.75;23.33;;;1.30;99.90;;;;;;5118234;28;20036;-49
2022/12/04 12:02:30;;;;;;;59.90;24.35;;;1.20;99.90;;;;;;5090302;28;20035;-49
2022/12/04 12:05:13;;;;;;;57.80;24.23;;;1.40;99.90;;;;;;5118608;28;20031;-45
2022/12/04 12:07:53;;;;;;;55.45;22.13;;;1.20;99.90;;;;;;5117915;28;20139;-46
2022/12/04 12:10:25;;;;;;;57.53;23.80;;;1.40;99.90;;;;;;5118664;28;20035;-45
2022/12/04 12:12:56;;;;;;;58.08;24.83;;;1.50;99.90;;;;;;5117635;28;20065;-47
2022/12/04 12:15:25;;;;;;;57.10;23.33;;;1.50;99.90;;;;;;5098907;28;20126;-46
2022/12/04 12:18:14;;;;;;;56.95;23.88;;;1.30;99.90;;;;;;5117845;28;20058;-50
2022/12/04 12:21:04;;;;;;;50.70;22.80;;;1.50;99.90;;;;;;5114896;28;20608;-51
2022/12/04 12:24:04;;;;;;;51.17;20.58;;;1.40;99.90;;;;;;5116105;28;20035;-48
2022/12/04 12:27:01;;;;;;;50.67;21.98;;;1.60;99.90;;;;;;5117725;28;20031;-47
2022/12/04 12:29:48;;;;;;;48.78;20.65;;;1.40;99.90;;;;;;5098791;28;20415;-47
2022/12/04 12:32:44;;;;;;;44.75;19.77;;;1.60;99.90;;;;;;5099018;28;20095;-45
2022/12/04 12:35:32;;;;;;;47.63;20.75;;;1.60;99.90;;;;;;5100745;28;20040;-47
2022/12/04 12:38:21;;;;;;;46.17;19.52;;;1.40;99.90;;;;;;5118482;28;20543;-46
2022/12/04 12:40:52;;;;;;;44.30;20.45;;;1.50;99.90;;;;;;5119858;28;20429;-47
2022/12/04 12:43:29;;;;;;;44.05;19.50;;;1.70;99.90;;;;;;5116945;28;20047;-47
2022/12/04 12:46:22;;;;;;;43.95;19.20;;;1.60;99.90;;;;;;5084082;28;20083;-47
2022/12/04 12:49:00;;;;;;;41.20;20.15;;;1.60;99.90;;;;;;5118485;28;20063;-46
2022/12/04 12:51:47;;;;;;;39.10;18.55;;;1.60;99.90;;;;;;5117696;28;20069;-47
2022/12/04 12:54:39;;;;;;;36.88;17.52;;;1.80;99.90;;;;;;5117234;28;20058;-46
2022/12/04 12:57:36;;;;;;;38.42;18.17;;;1.80;99.90;;;;;;5117926;28;20092;-48
2022/12/04 13:00:20;;;;;;;38.28;17.33;;;1.80;99.90;;;;;;5111490;28;20561;-48
2022/12/04 13:02:55;;;;;;;35.85;17.63;;;1.80;99.90;;;;;;5119222;28;20043;-46
2022/12/04 13:05:36;;;;;;;38.05;17.08;;;1.80;99.90;;;;;;5122995;27;20091;-47
2022/12/04 13:08:21;;;;;;;37.38;16.75;;;1.90;99.90;;;;;;5097654;27;20047;-47
2022/12/04 13:11:01;;;;;;;32.85;15.02;;;1.80;99.90;;;;;;5119242;27;20031;-46
2022/12/04 13:13:31;;;;;;;31.15;15.98;;;1.80;99.90;;;;;;5118581;27;20038;-48